Terminal Aerodrome Forecast
Issued by NWS Knoxville/Tri Cities, TN

Home | Current Version | Previous Version | Text Only | Print | Product List | Glossary On
Versions: 1 2 3 4 5 6 7 8 9 10 11 12 13 14 15 16 17 18 19 20 21 22 23 24 25 26
000
FTUS44 KMRX 222320
TAFTRI
TAF
KTRI 222320Z 2300/2324 08005KT P6SM BKN050
     FM230200 09003KT 4SM -SHRA BR SCT025 OVC050
     FM230600 VRB03KT 5SM BR SCT025 BKN150
     FM231300 VRB03KT P6SM FEW035 BKN250=

USA.gov is the U.S. government's official web portal to all federal, state and local government web resources and services.